createdAt,value
2023-04-26T00:01:17.885Z,7.5
2023-04-26T00:03:43.972Z,7.5
2023-04-26T00:06:09.067Z,7.4
2023-04-26T00:08:34.187Z,7.3
2023-04-26T00:11:00.302Z,7.3
2023-04-26T00:13:26.390Z,7.2
2023-04-26T00:15:52.469Z,7.2
2023-04-26T00:18:18.578Z,7.1
2023-04-26T00:20:44.702Z,7.1
2023-04-26T00:23:10.860Z,7
2023-04-26T00:25:36.835Z,7
2023-04-26T00:28:02.924Z,7
2023-04-26T00:30:29.068Z,7
2023-04-26T00:32:55.117Z,6.9
2023-04-26T00:35:21.217Z,6.8
2023-04-26T00:37:47.304Z,6.8
2023-04-26T00:40:12.470Z,6.8
2023-04-26T00:42:38.536Z,6.7
2023-04-26T00:45:04.619Z,6.7
2023-04-26T00:47:30.731Z,6.8
2023-04-26T00:49:56.907Z,6.7
2023-04-26T00:52:22.900Z,6.6
2023-04-26T00:54:48.983Z,6.5
2023-04-26T00:57:14.122Z,6.5
2023-04-26T00:59:39.301Z,6.4
2023-04-26T01:02:05.328Z,6.4
2023-04-26T01:04:31.465Z,6.3
2023-04-26T01:06:57.499Z,6.2
2023-04-26T01:09:23.629Z,6.1
2023-04-26T01:11:49.773Z,6.1
2023-04-26T01:14:15.895Z,6.1
2023-04-26T01:16:41.873Z,6.1
2023-04-26T01:19:08.148Z,6
2023-04-26T01:21:34.116Z,5.9
2023-04-26T01:24:00.271Z,5.9
2023-04-26T01:26:26.300Z,5.8
2023-04-26T01:28:52.524Z,5.8
2023-04-26T01:31:17.571Z,5.8
2023-04-26T01:33:43.603Z,5.8
2023-04-26T01:36:09.723Z,5.7
2023-04-26T01:38:35.749Z,5.6
2023-04-26T01:41:01.869Z,5.6
2023-04-26T01:43:27.952Z,5.6
2023-04-26T01:45:54.065Z,5.5
2023-04-26T01:48:20.163Z,5.4
2023-04-26T01:50:46.239Z,5.5
2023-04-26T01:53:12.321Z,5.4
2023-04-26T01:55:38.474Z,5.4
2023-04-26T01:58:04.545Z,5.4
2023-04-26T02:00:30.641Z,5.4
2023-04-26T02:02:55.735Z,5.4
2023-04-26T02:05:21.825Z,5.4
2023-04-26T02:07:47.928Z,5.4
2023-04-26T02:10:14.075Z,5.4
2023-04-26T02:12:40.161Z,5.4
2023-04-26T02:15:06.348Z,5.4
2023-04-26T02:17:32.308Z,5.4
2023-04-26T02:19:58.634Z,5.3
2023-04-26T02:24:50.599Z,5.3
2023-04-26T02:27:16.702Z,5.4
2023-04-26T02:29:42.890Z,5.4
2023-04-26T02:32:08.930Z,5.4
2023-04-26T02:34:34.087Z,5.2
2023-04-26T02:37:00.146Z,5.2
2023-04-26T02:39:26.322Z,5.2
2023-04-26T02:41:52.281Z,5.2
2023-04-26T02:44:18.386Z,5.2
2023-04-26T02:46:44.477Z,5.2
2023-04-26T02:49:10.598Z,5.2
2023-04-26T02:51:36.655Z,5.2
2023-04-26T02:54:02.789Z,5.2
2023-04-26T02:56:28.879Z,5.2
2023-04-26T02:58:55.001Z,5.1
2023-04-26T03:01:21.137Z,5
2023-04-26T03:03:47.149Z,5.1
2023-04-26T03:06:12.258Z,5.1
2023-04-26T03:08:38.470Z,5.2
2023-04-26T03:11:04.541Z,5.2
2023-04-26T03:13:30.554Z,5.2
2023-04-26T03:15:56.665Z,5.2
2023-04-26T03:18:22.733Z,5.3
2023-04-26T03:20:48.817Z,5.2
2023-04-26T03:23:15.005Z,5.2
2023-04-26T03:25:41.025Z,5.2
2023-04-26T03:28:07.121Z,5.2
2023-04-26T03:30:33.218Z,5.2
2023-04-26T03:32:59.321Z,5.2
2023-04-26T03:35:25.410Z,5.1
2023-04-26T03:37:50.540Z,5
2023-04-26T03:40:16.694Z,5
2023-04-26T03:42:42.703Z,5
2023-04-26T03:45:08.816Z,4.9
2023-04-26T03:47:34.926Z,4.9
2023-04-26T03:50:01.003Z,4.9
2023-04-26T03:52:27.096Z,4.9
2023-04-26T03:54:53.183Z,4.9
2023-04-26T03:57:19.287Z,4.9
2023-04-26T03:59:45.411Z,4.9
2023-04-26T04:02:11.542Z,4.8
2023-04-26T04:04:37.567Z,4.7
2023-04-26T04:07:03.707Z,4.6
2023-04-26T04:09:28.830Z,4.5
2023-04-26T04:11:54.894Z,4.5
2023-04-26T04:14:20.968Z,4.5
2023-04-26T04:16:47.070Z,4.5
2023-04-26T04:19:13.164Z,4.5
2023-04-26T04:21:39.236Z,4.4
2023-04-26T04:24:05.354Z,4.4
2023-04-26T04:26:31.447Z,4.3
2023-04-26T04:28:56.720Z,4.3
2023-04-26T04:31:22.658Z,4.4
2023-04-26T04:33:48.755Z,4.5
2023-04-26T04:36:14.940Z,4.6
2023-04-26T04:38:41.106Z,4.7
2023-04-26T04:41:07.083Z,4.8
2023-04-26T04:43:33.156Z,4.9
2023-04-26T04:45:59.333Z,5
2023-04-26T04:48:25.321Z,5.2
2023-04-26T04:50:51.434Z,5.3
2023-04-26T04:53:17.509Z,5.2
2023-04-26T04:55:43.637Z,5.1
2023-04-26T04:58:09.693Z,5.1
2023-04-26T05:00:34.806Z,5.1
2023-04-26T05:03:00.929Z,5.1
2023-04-26T05:05:27.045Z,5.1
2023-04-26T05:07:53.122Z,5.2
2023-04-26T05:10:19.188Z,5.2
2023-04-26T05:12:45.292Z,5.3
2023-04-26T05:15:11.396Z,5.3
2023-04-26T05:17:37.551Z,5.3
2023-04-26T05:20:03.598Z,5.5
2023-04-26T05:22:29.677Z,5.5
2023-04-26T05:24:55.837Z,5.6
2023-04-26T05:27:21.858Z,5.7
2023-04-26T05:29:48.001Z,5.6
2023-04-26T05:32:13.059Z,5.6
2023-04-26T05:34:39.295Z,5.6
2023-04-26T05:37:05.265Z,5.6
2023-04-26T05:39:31.413Z,5.6
2023-04-26T05:41:57.627Z,5.5
2023-04-26T05:44:23.871Z,5.5
2023-04-26T05:46:49.697Z,5.5
2023-04-26T05:49:15.902Z,5.6
2023-04-26T05:51:41.917Z,5.6
2023-04-26T05:54:08.031Z,5.5
2023-04-26T05:56:34.086Z,5.6
2023-04-26T05:59:00.166Z,5.7
2023-04-26T06:01:26.289Z,5.6
2023-04-26T06:03:52.364Z,5.7
2023-04-26T06:06:17.444Z,5.8
2023-04-26T06:08:43.524Z,5.8
2023-04-26T06:11:09.695Z,5.8
2023-04-26T06:13:35.721Z,5.9
2023-04-26T06:16:01.833Z,5.9
2023-04-26T06:18:27.993Z,6
2023-04-26T06:20:54.037Z,6
2023-04-26T06:23:20.104Z,6.2
2023-04-26T06:25:46.204Z,6
2023-04-26T06:28:12.288Z,6
2023-04-26T06:30:38.381Z,6.2
2023-04-26T06:33:04.475Z,6.3
2023-04-26T06:35:30.586Z,6.2
2023-04-26T06:37:55.757Z,6.3
2023-04-26T06:40:21.804Z,6.4
2023-04-26T06:42:48.009Z,6.4
2023-04-26T06:45:14.032Z,6.5
2023-04-26T06:47:40.122Z,6.4
2023-04-26T06:50:06.295Z,6.5
2023-04-26T06:52:32.316Z,6.6
2023-04-26T06:54:58.450Z,6.7
2023-04-26T06:57:24.474Z,6.8
2023-04-26T06:59:50.561Z,6.8
2023-04-26T07:02:16.668Z,7
2023-04-26T07:04:42.755Z,7.2
2023-04-26T07:07:08.859Z,7.3
2023-04-26T07:09:33.967Z,7.3
2023-04-26T07:12:00.118Z,7.2
2023-04-26T07:14:26.297Z,7.2
2023-04-26T07:16:52.253Z,7.2
2023-04-26T07:19:18.357Z,7
2023-04-26T07:21:44.461Z,7
2023-04-26T07:24:10.627Z,7.2
2023-04-26T07:26:36.631Z,7.3
2023-04-26T07:29:02.732Z,7.4
2023-04-26T07:31:28.877Z,7.5
2023-04-26T07:33:55.104Z,7.6
2023-04-26T07:36:21.038Z,7.7
2023-04-26T07:38:47.129Z,7.9
2023-04-26T07:41:12.269Z,8.1
2023-04-26T07:43:38.522Z,8.1
2023-04-26T07:46:04.445Z,8.2
2023-04-26T07:48:30.604Z,8.3
2023-04-26T07:50:56.713Z,8.3
2023-04-26T07:53:22.744Z,8.5
2023-04-26T07:55:48.799Z,8.6
2023-04-26T08:00:40.999Z,8.8
2023-04-26T08:03:07.087Z,9
2023-04-26T08:05:33.211Z,9.1
2023-04-26T08:07:59.333Z,9.2
2023-04-26T08:10:25.378Z,9.4
2023-04-26T08:12:50.485Z,9.5
2023-04-26T08:15:16.640Z,9.6
2023-04-26T08:17:42.721Z,9.7
2023-04-26T08:20:08.864Z,9.9
2023-04-26T08:22:34.909Z,10
2023-04-26T08:25:01.085Z,10.2
2023-04-26T08:27:27.102Z,10.2
2023-04-26T08:29:53.242Z,10.1
2023-04-26T08:32:19.311Z,10.3
2023-04-26T08:34:45.539Z,10.3
2023-04-26T08:37:11.484Z,10.3
2023-04-26T08:39:37.611Z,10.4
2023-04-26T08:42:03.782Z,10.4
2023-04-26T08:44:28.754Z,10.5
2023-04-26T08:46:54.858Z,10.6
2023-04-26T08:49:20.952Z,10.6
2023-04-26T08:51:47.064Z,10.7
2023-04-26T08:54:13.223Z,10.8
2023-04-26T08:56:39.356Z,10.9
2023-04-26T08:59:05.379Z,11.1
2023-04-26T09:01:31.419Z,11.2
2023-04-26T09:03:57.610Z,11.5
2023-04-26T09:06:23.612Z,11.9
2023-04-26T09:08:49.726Z,12.1
2023-04-26T09:11:15.986Z,12.3
2023-04-26T09:13:42.077Z,12.2
2023-04-26T09:16:07.108Z,11.9
2023-04-26T09:18:33.374Z,11.7
2023-04-26T09:20:59.216Z,11.7
2023-04-26T09:25:51.405Z,11.6
2023-04-26T09:28:17.491Z,11.6
2023-04-26T09:30:43.615Z,11.7
2023-04-26T09:33:09.694Z,11.9
2023-04-26T09:35:35.802Z,12.3
2023-04-26T09:38:01.868Z,12.4
2023-04-26T09:40:27.988Z,12.1
2023-04-26T09:42:54.094Z,12.2
2023-04-26T09:45:20.147Z,12.3
2023-04-26T09:47:45.268Z,12.2
2023-04-26T09:50:11.376Z,12.2
2023-04-26T09:52:37.599Z,12.3
2023-04-26T09:55:03.544Z,12.3
2023-04-26T09:57:29.720Z,12.6
2023-04-26T09:59:55.893Z,12.6
2023-04-26T10:02:22.040Z,12.7
2023-04-26T10:04:48.180Z,12.7
2023-04-26T10:07:14.198Z,12.8
2023-04-26T10:09:40.276Z,12.9
2023-04-26T10:12:06.309Z,12.8
2023-04-26T10:14:32.517Z,12.5
2023-04-26T10:16:58.579Z,12.5
2023-04-26T10:19:23.736Z,12.5
2023-04-26T10:21:49.690Z,12.6
2023-04-26T10:24:15.732Z,12.5
2023-04-26T10:26:41.844Z,12.4
2023-04-26T10:29:07.893Z,12.5
2023-04-26T10:31:34.065Z,12.7
2023-04-26T10:34:00.178Z,12.8
2023-04-26T10:36:26.186Z,13
2023-04-26T10:38:52.426Z,13.2
2023-04-26T10:41:18.571Z,13.3
2023-04-26T10:43:44.502Z,12.7
2023-04-26T10:46:10.780Z,13
2023-04-26T10:48:36.773Z,12.8
2023-04-26T10:51:01.819Z,12.9
2023-04-26T10:53:27.909Z,13
2023-04-26T10:55:54.010Z,13.3
2023-04-26T10:58:20.152Z,13.4
2023-04-26T11:00:46.205Z,13.4
2023-04-26T11:03:12.306Z,13.4
2023-04-26T11:05:38.398Z,13.4
2023-04-26T11:08:04.460Z,13.5
2023-04-26T11:10:30.552Z,13.6
2023-04-26T11:12:56.646Z,13.1
2023-04-26T11:15:22.726Z,13.1
2023-04-26T11:17:48.824Z,13.3
2023-04-26T11:20:14.928Z,13.2
2023-04-26T11:22:40.084Z,13.1
2023-04-26T11:25:06.142Z,13.2
2023-04-26T11:27:32.230Z,13.3
2023-04-26T11:29:58.334Z,13.2
2023-04-26T11:32:24.436Z,13.4
2023-04-26T11:34:50.531Z,13.5
2023-04-26T11:37:16.653Z,13.7
2023-04-26T11:39:42.718Z,13.8
2023-04-26T11:42:08.866Z,14.1
2023-04-26T11:44:34.957Z,14
2023-04-26T11:47:01.001Z,14.3
2023-04-26T11:49:27.295Z,14.4
2023-04-26T11:51:53.202Z,14.3
2023-04-26T11:54:18.293Z,14.4
2023-04-26T11:56:44.453Z,14.3
2023-04-26T11:59:10.501Z,14.3
2023-04-26T12:01:36.573Z,14.5
2023-04-26T12:04:02.688Z,14.8
2023-04-26T12:06:28.774Z,14.9
2023-04-26T12:08:54.997Z,15.3
2023-04-26T12:11:21.006Z,14.9
2023-04-26T12:13:47.062Z,15
2023-04-26T12:16:13.158Z,14.9
2023-04-26T12:18:39.380Z,15.1
2023-04-26T12:21:05.378Z,14.9
2023-04-26T12:23:31.623Z,14.5
2023-04-26T12:25:56.705Z,14.3
2023-04-26T12:28:22.758Z,14.1
2023-04-26T12:30:48.891Z,14.1
2023-04-26T12:33:14.837Z,14.4
2023-04-26T12:35:41.100Z,14.4
2023-04-26T12:38:06.139Z,14.4
2023-04-26T12:40:32.233Z,14.7
2023-04-26T12:42:58.237Z,14.6
2023-04-26T12:45:24.328Z,14.8
2023-04-26T12:47:50.444Z,14.7
2023-04-26T12:50:16.548Z,14.6
2023-04-26T12:52:42.649Z,14.4
2023-04-26T12:55:08.722Z,14.3
2023-04-26T12:57:34.853Z,14.3
2023-04-26T13:00:00.904Z,14.4
2023-04-26T13:02:27.052Z,14.6
2023-04-26T13:04:53.153Z,14.6
2023-04-26T13:07:19.316Z,14.7
2023-04-26T13:09:44.444Z,14.6
2023-04-26T13:12:10.431Z,14.9
2023-04-26T13:14:36.479Z,14.7
2023-04-26T13:17:02.589Z,14.3
2023-04-26T13:19:28.667Z,14.2
2023-04-26T13:21:54.771Z,14.2
2023-04-26T13:24:20.890Z,14.4
2023-04-26T13:26:46.974Z,14.4
2023-04-26T13:29:13.078Z,14.4
2023-04-26T13:31:39.181Z,14.7
2023-04-26T13:34:05.256Z,15
2023-04-26T13:36:31.350Z,15.4
2023-04-26T13:38:57.448Z,16.4
2023-04-26T13:41:22.544Z,17.2
2023-04-26T13:43:48.633Z,17.1
2023-04-26T13:46:14.744Z,16.2
2023-04-26T13:48:40.865Z,15.9
2023-04-26T13:51:06.984Z,15.9
2023-04-26T13:53:33.065Z,15.7
2023-04-26T13:55:59.191Z,16.6
2023-04-26T13:58:25.256Z,17.1
2023-04-26T14:00:51.357Z,17.7
2023-04-26T14:03:17.462Z,17.8
2023-04-26T14:05:43.510Z,18.1
2023-04-26T14:08:09.639Z,18.6
2023-04-26T14:10:35.775Z,18.4
2023-04-26T14:13:00.820Z,18.6
2023-04-26T14:15:26.915Z,18.2
2023-04-26T14:17:53.022Z,17.5
2023-04-26T14:20:19.169Z,17.4
2023-04-26T14:22:45.216Z,17
2023-04-26T14:25:11.447Z,17.7
2023-04-26T14:27:37.433Z,18.2
2023-04-26T14:30:03.645Z,18.8
2023-04-26T14:32:29.670Z,19.3
2023-04-26T14:34:55.657Z,19.4
2023-04-26T14:37:21.773Z,19.7
2023-04-26T14:39:47.877Z,19.4
2023-04-26T14:42:13.959Z,18.3
2023-04-26T14:44:39.079Z,18.1
2023-04-26T14:47:05.155Z,17.2
2023-04-26T14:49:31.256Z,16.8
2023-04-26T14:51:57.398Z,16.5
2023-04-26T14:54:23.466Z,17.8
2023-04-26T14:56:49.557Z,18
2023-04-26T14:59:15.782Z,18.8
2023-04-26T15:01:41.756Z,19
2023-04-26T15:04:07.823Z,19.5
2023-04-26T15:06:33.900Z,19.3
2023-04-26T15:08:59.998Z,18.4
2023-04-26T15:11:26.151Z,17.3
2023-04-26T15:13:52.201Z,16.4
2023-04-26T15:16:17.308Z,16.4
2023-04-26T15:18:43.406Z,17.1
2023-04-26T15:21:09.500Z,17.3
2023-04-26T15:23:35.594Z,17.2
2023-04-26T15:26:01.695Z,17.6
2023-04-26T15:28:27.802Z,18.4
2023-04-26T15:30:53.894Z,18.9
2023-04-26T15:33:20.089Z,18.6
2023-04-26T15:35:46.085Z,18.2
2023-04-26T15:38:12.224Z,17.5
2023-04-26T15:40:38.314Z,17.4
2023-04-26T15:43:04.471Z,16.8
2023-04-26T15:45:30.495Z,16.6
2023-04-26T15:47:55.610Z,16.7
2023-04-26T15:52:47.782Z,16.3
2023-04-26T15:55:13.865Z,16.1
2023-04-26T15:57:40.034Z,17
2023-04-26T16:00:06.037Z,17.7
2023-04-26T16:02:32.151Z,18.5
2023-04-26T16:04:58.268Z,19.3
2023-04-26T16:07:24.366Z,19.7
2023-04-26T16:09:50.436Z,19.3
2023-04-26T16:12:16.517Z,19.7
2023-04-26T16:14:42.693Z,19.6
2023-04-26T16:17:08.712Z,19.3
2023-04-26T16:19:33.807Z,18.4
2023-04-26T16:22:00.040Z,17.7
2023-04-26T16:24:26.026Z,16.8
2023-04-26T16:26:52.091Z,16.4
2023-04-26T16:29:18.243Z,16.1
2023-04-26T16:31:44.378Z,16
2023-04-26T16:34:10.416Z,15.8
2023-04-26T16:36:36.614Z,15.8
2023-04-26T16:39:02.658Z,15.8
2023-04-26T16:41:28.696Z,15.5
2023-04-26T16:43:54.842Z,15.4
2023-04-26T16:46:20.865Z,15.3
2023-04-26T16:48:46.989Z,15.1
2023-04-26T16:51:12.073Z,14.9
2023-04-26T16:53:38.159Z,14.7
2023-04-26T16:56:04.256Z,14.5
2023-04-26T16:58:30.517Z,14.4
2023-04-26T17:00:56.519Z,14.4
2023-04-26T17:03:22.561Z,14.6
2023-04-26T17:05:48.640Z,15.1
2023-04-26T17:08:14.747Z,15.3
2023-04-26T17:10:40.857Z,15.4
2023-04-26T17:13:07.107Z,15.4
2023-04-26T17:15:33.053Z,15.6
2023-04-26T17:17:59.126Z,15.9
2023-04-26T17:20:25.246Z,16.2
2023-04-26T17:22:50.321Z,16.1
2023-04-26T17:25:16.502Z,15.6
2023-04-26T17:27:42.604Z,15.3
2023-04-26T17:30:08.701Z,15
2023-04-26T17:32:34.751Z,15
2023-04-26T17:35:00.794Z,15
2023-04-26T17:37:26.897Z,14.7
2023-04-26T17:39:53.001Z,14.4
2023-04-26T17:42:19.087Z,14.3
2023-04-26T17:44:45.194Z,14.2
2023-04-26T17:47:11.286Z,14.2
2023-04-26T17:49:37.380Z,14.1
2023-04-26T17:52:03.481Z,14.1
2023-04-26T17:54:28.584Z,13.9
2023-04-26T17:56:54.679Z,13.8
2023-04-26T17:59:20.778Z,13.8
2023-04-26T18:01:46.871Z,13.6
2023-04-26T18:04:12.956Z,13.6
2023-04-26T18:06:39.189Z,13.6
2023-04-26T18:09:05.194Z,13.5
2023-04-26T18:11:31.243Z,13.5
2023-04-26T18:13:57.349Z,13.4
2023-04-26T18:16:23.444Z,13.2
2023-04-26T18:18:49.524Z,13.1
2023-04-26T18:21:15.655Z,12.9
2023-04-26T18:23:41.764Z,12.8
2023-04-26T18:26:06.859Z,12.7
2023-04-26T18:28:32.959Z,12.6
2023-04-26T18:30:59.039Z,12.5
2023-04-26T18:33:25.131Z,12.4
2023-04-26T18:35:51.290Z,12.3
2023-04-26T18:38:17.309Z,12.2
2023-04-26T18:40:43.429Z,12
2023-04-26T18:43:09.500Z,11.9
2023-04-26T18:45:35.622Z,11.8
2023-04-26T18:48:01.694Z,11.6
2023-04-26T18:50:27.786Z,11.4
2023-04-26T18:52:53.901Z,11.2
2023-04-26T18:55:20.121Z,11.1
2023-04-26T18:57:45.208Z,11
2023-04-26T19:00:11.200Z,10.9
2023-04-26T19:02:37.317Z,10.8
2023-04-26T19:05:03.391Z,10.7
2023-04-26T19:07:29.467Z,10.6
2023-04-26T19:09:55.573Z,10.5
2023-04-26T19:12:21.838Z,10.5
2023-04-26T19:14:47.781Z,10.4
2023-04-26T19:17:13.927Z,10.3
2023-04-26T19:19:39.969Z,10.2
2023-04-26T19:22:06.058Z,10.2
2023-04-26T19:24:32.156Z,10.2
2023-04-26T19:26:58.242Z,10.2
2023-04-26T19:29:24.352Z,10.1
2023-04-26T19:31:50.441Z,10.1
2023-04-26T19:34:16.538Z,10
2023-04-26T19:36:41.651Z,10
2023-04-26T19:39:07.875Z,9.9
2023-04-26T19:41:33.976Z,9.9
2023-04-26T19:43:59.963Z,9.8
2023-04-26T19:46:26.124Z,9.8
2023-04-26T19:48:52.128Z,9.7
2023-04-26T19:51:18.362Z,9.7
2023-04-26T19:53:44.488Z,9.7
2023-04-26T19:56:10.436Z,9.7
2023-04-26T19:58:36.612Z,9.7
2023-04-26T20:01:02.660Z,9.7
2023-04-26T20:03:28.803Z,9.7
2023-04-26T20:05:54.988Z,9.7
2023-04-26T20:08:19.974Z,9.8
2023-04-26T20:10:46.101Z,9.8
2023-04-26T20:13:12.191Z,9.8
2023-04-26T20:15:38.208Z,9.8
2023-04-26T20:18:04.345Z,9.8
2023-04-26T20:20:30.454Z,9.8
2023-04-26T20:22:56.513Z,9.7
2023-04-26T20:25:22.606Z,9.8
2023-04-26T20:27:48.742Z,9.8
2023-04-26T20:30:14.829Z,9.8
2023-04-26T20:32:40.888Z,9.7
2023-04-26T20:35:06.979Z,9.6
2023-04-26T20:37:33.053Z,9.5
2023-04-26T20:39:58.168Z,9.4
2023-04-26T20:42:24.265Z,9.4
2023-04-26T20:44:50.349Z,9.4
2023-04-26T20:47:15.472Z,9.2
2023-04-26T20:49:41.580Z,9.1
2023-04-26T20:52:07.660Z,9.1
2023-04-26T20:54:33.741Z,9.1
2023-04-26T20:56:59.857Z,9
2023-04-26T20:59:25.936Z,8.9
2023-04-26T21:01:52.034Z,8.9
2023-04-26T21:04:18.154Z,8.9
2023-04-26T21:06:44.246Z,8.8
2023-04-26T21:09:10.476Z,8.9
2023-04-26T21:11:36.414Z,8.8
2023-04-26T21:14:02.507Z,8.8
2023-04-26T21:16:28.610Z,8.7
2023-04-26T21:18:53.724Z,8.6
2023-04-26T21:21:19.829Z,8.5
2023-04-26T21:23:45.915Z,8.4
2023-04-26T21:26:12.054Z,8.4
2023-04-26T21:28:38.155Z,8.4
2023-04-26T21:31:04.198Z,8.4
2023-04-26T21:33:30.352Z,8.4
2023-04-26T21:35:56.383Z,8.4
2023-04-26T21:38:22.502Z,8.5
2023-04-26T21:40:48.571Z,8.5
2023-04-26T21:43:14.685Z,8.5
2023-04-26T21:45:40.772Z,8.5
2023-04-26T21:48:06.864Z,8.5
2023-04-26T21:50:31.980Z,8.5
2023-04-26T21:52:58.072Z,8.5
2023-04-26T21:55:24.249Z,8.5
2023-04-26T21:57:50.269Z,8.5
2023-04-26T22:00:16.403Z,8.5
2023-04-26T22:02:42.497Z,8.5
2023-04-26T22:05:08.643Z,8.5
2023-04-26T22:07:35.069Z,8.5
2023-04-26T22:10:00.802Z,8.5
2023-04-26T22:12:26.884Z,8.5
2023-04-26T22:14:52.988Z,8.4
2023-04-26T22:17:19.068Z,8.4
2023-04-26T22:19:45.168Z,8.4
2023-04-26T22:22:10.234Z,8.4
2023-04-26T22:24:36.337Z,8.3
2023-04-26T22:27:02.490Z,8.3
2023-04-26T22:29:28.539Z,8.3
2023-04-26T22:31:54.631Z,8.2
2023-04-26T22:34:20.730Z,8.2
2023-04-26T22:36:46.859Z,8.2
2023-04-26T22:39:12.924Z,8.2
2023-04-26T22:41:39.010Z,8.2
2023-04-26T22:44:05.121Z,8.2
2023-04-26T22:46:31.218Z,8.2
2023-04-26T22:48:57.296Z,8.2
2023-04-26T22:51:23.390Z,8.2
2023-04-26T22:53:48.523Z,8.2
2023-04-26T22:56:14.689Z,8.2
2023-04-26T22:58:40.705Z,8.1
2023-04-26T23:01:06.804Z,8.1
2023-04-26T23:03:32.919Z,8.1
2023-04-26T23:05:58.996Z,8
2023-04-26T23:08:25.082Z,8
2023-04-26T23:10:51.190Z,8
2023-04-26T23:13:17.309Z,8
2023-04-26T23:15:43.414Z,8
2023-04-26T23:18:09.459Z,7.9
2023-04-26T23:20:35.571Z,8
2023-04-26T23:23:01.664Z,8
2023-04-26T23:25:26.759Z,8
2023-04-26T23:27:52.870Z,7.9
2023-04-26T23:30:18.972Z,7.8
2023-04-26T23:32:45.070Z,7.8
2023-04-26T23:35:11.159Z,7.8
2023-04-26T23:37:37.239Z,7.8
2023-04-26T23:40:03.337Z,7.8
2023-04-26T23:42:29.427Z,7.7
2023-04-26T23:44:55.543Z,7.7
2023-04-26T23:47:21.632Z,7.7
2023-04-26T23:49:47.716Z,7.7
2023-04-26T23:52:13.818Z,7.7
2023-04-26T23:54:39.917Z,7.7
2023-04-26T23:57:05.033Z,7.7
2023-04-26T23:59:31.127Z,7.7
